Time;durP1;ratioP1;P1;durP2;ratioP2;P2;SDS_P1;SDS_P2;PMS_P1;PMS_P2;Temp;Humidity;BMP_temperature;BMP_pressure;BME280_temperature;BME280_humidity;BME280_pressure;Samples;Min_cycle;Max_cycle;Signal;HPM_P1;HPM_P2
2023/08/15 00:00:01;;;;;;;2.40;2.20;;;23.70;72.50;;;;;;6170458;23;20432;-68
2023/08/15 00:02:39;;;;;;;3.30;2.90;;;23.70;72.50;;;;;;6172400;23;20685;-68
2023/08/15 00:05:08;;;;;;;3.43;3.13;;;23.80;72.50;;;;;;6169703;23;20489;-68
2023/08/15 00:07:55;;;;;;;2.90;2.20;;;23.80;72.60;;;;;;6172486;23;20867;-69
2023/08/15 00:10:25;;;;;;;3.53;2.53;;;23.70;72.50;;;;;;6170098;23;20946;-68
2023/08/15 00:12:54;;;;;;;4.00;2.90;;;23.80;72.50;;;;;;6145842;23;20748;-67
2023/08/15 00:15:22;;;;;;;3.33;2.83;;;23.70;72.40;;;;;;6170421;23;20776;-66
2023/08/15 00:17:50;;;;;;;3.50;3.20;;;23.80;72.60;;;;;;6171562;23;20458;-68
2023/08/15 00:20:19;;;;;;;2.83;2.50;;;23.80;72.50;;;;;;6169092;23;20433;-70
2023/08/15 00:22:47;;;;;;;3.50;2.27;;;23.80;72.30;;;;;;6170753;23;20450;-68
2023/08/15 00:25:16;;;;;;;3.00;2.70;;;23.80;72.40;;;;;;6170578;23;20570;-68
2023/08/15 00:27:45;;;;;;;3.80;2.50;;;23.80;72.20;;;;;;6172184;23;20393;-67
2023/08/15 00:30:14;;;;;;;4.37;2.97;;;23.80;72.50;;;;;;6170038;23;20424;-69
2023/08/15 00:32:42;;;;;;;3.10;2.80;;;23.80;72.60;;;;;;6170805;23;20829;-68
2023/08/15 00:35:12;;;;;;;3.00;2.70;;;23.70;72.50;;;;;;6168936;23;20428;-68
2023/08/15 00:37:41;;;;;;;3.23;2.80;;;23.80;72.70;;;;;;6171674;23;20389;-69
2023/08/15 00:40:10;;;;;;;3.20;2.90;;;23.80;72.80;;;;;;6170037;23;20439;-69
2023/08/15 00:42:38;;;;;;;2.70;2.47;;;23.80;72.50;;;;;;6170073;23;20400;-69
2023/08/15 00:45:09;;;;;;;3.90;2.30;;;23.80;72.40;;;;;;6169215;23;20436;-67
2023/08/15 00:47:38;;;;;;;2.83;2.57;;;23.80;72.30;;;;;;6170208;23;20389;-67
2023/08/15 00:50:09;;;;;;;2.93;2.60;;;23.80;72.50;;;;;;6168965;23;20482;-68
2023/08/15 00:52:38;;;;;;;3.03;2.80;;;23.80;72.50;;;;;;6170166;23;20942;-70
2023/08/15 00:55:09;;;;;;;2.70;2.50;;;23.80;72.60;;;;;;6171734;22;20817;-68
2023/08/15 00:57:38;;;;;;;2.77;2.10;;;23.80;72.10;;;;;;6170298;23;20843;-68
2023/08/15 01:00:11;;;;;;;3.70;2.20;;;23.80;71.60;;;;;;6169630;23;20463;-67
2023/08/15 01:02:40;;;;;;;2.47;2.27;;;23.80;71.50;;;;;;6171235;23;20391;-67
2023/08/15 01:05:08;;;;;;;3.03;2.60;;;23.80;72.00;;;;;;6170478;23;20441;-69
2023/08/15 01:07:37;;;;;;;2.10;1.90;;;23.80;72.10;;;;;;6172696;23;20431;-67
2023/08/15 01:10:06;;;;;;;2.97;2.20;;;23.80;71.20;;;;;;6171184;23;20432;-67
2023/08/15 01:12:44;;;;;;;2.40;2.20;;;23.80;71.50;;;;;;6170705;23;20942;-69
2023/08/15 01:15:19;;;;;;;2.63;2.27;;;23.80;71.50;;;;;;6171022;23;20424;-69
2023/08/15 01:17:55;;;;;;;2.33;2.10;;;23.80;71.40;;;;;;6172375;23;21034;-68
2023/08/15 01:20:27;;;;;;;3.03;2.53;;;23.70;71.30;;;;;;6170675;23;20435;-68
2023/08/15 01:23:01;;;;;;;2.10;1.90;;;23.80;71.40;;;;;;6171944;23;20983;-67
2023/08/15 01:25:39;;;;;;;2.83;2.63;;;23.80;71.50;;;;;;6171886;23;20475;-69
2023/08/15 01:28:10;;;;;;;4.63;2.50;;;23.80;71.90;;;;;;6173646;23;20384;-68
2023/08/15 01:30:43;;;;;;;2.80;2.60;;;23.80;73.10;;;;;;6172369;23;20751;-70
2023/08/15 01:33:16;;;;;;;2.17;1.97;;;23.80;72.70;;;;;;6173100;23;20424;-68
2023/08/15 01:35:48;;;;;;;2.77;2.43;;;23.80;72.20;;;;;;6172141;22;20432;-68
2023/08/15 01:38:26;;;;;;;2.53;2.33;;;23.80;72.60;;;;;;6172615;23;20475;-68
2023/08/15 01:41:00;;;;;;;3.20;2.83;;;23.80;72.30;;;;;;6171132;23;20436;-68
2023/08/15 01:43:30;;;;;;;3.37;2.97;;;23.80;72.20;;;;;;6171255;23;20369;-68
2023/08/15 01:45:58;;;;;;;3.50;3.20;;;23.70;72.50;;;;;;6170627;23;20437;-68
2023/08/15 01:48:27;;;;;;;2.90;2.70;;;23.70;73.30;;;;;;6171167;23;20397;-68
2023/08/15 01:50:55;;;;;;;3.73;3.17;;;23.70;72.60;;;;;;6170079;23;20436;-67
2023/08/15 01:53:24;;;;;;;2.70;2.50;;;23.70;72.40;;;;;;6171028;23;20452;-68
2023/08/15 01:55:53;;;;;;;3.33;3.03;;;23.70;73.20;;;;;;6170884;23;20440;-68
2023/08/15 01:58:23;;;;;;;2.93;2.57;;;23.80;73.20;;;;;;6170883;23;20847;-70
2023/08/15 02:00:51;;;;;;;2.67;2.30;;;23.70;72.40;;;;;;6170484;23;20900;-67
2023/08/15 02:03:20;;;;;;;3.57;2.60;;;23.70;72.10;;;;;;6171023;23;20699;-69
2023/08/15 02:05:48;;;;;;;2.83;2.53;;;23.70;73.10;;;;;;6170018;23;20439;-69
2023/08/15 02:08:17;;;;;;;2.60;2.40;;;23.70;72.40;;;;;;6171934;23;20771;-67
2023/08/15 02:10:45;;;;;;;3.10;2.80;;;23.80;72.50;;;;;;6170596;23;20791;-68
2023/08/15 02:13:14;;;;;;;3.43;2.30;;;23.70;72.30;;;;;;6170202;23;20409;-67
2023/08/15 02:15:44;;;;;;;2.63;2.30;;;23.70;72.50;;;;;;6170812;23;20440;-69
2023/08/15 02:18:12;;;;;;;2.93;2.73;;;23.80;72.60;;;;;;6171467;23;20893;-68
2023/08/15 02:20:40;;;;;;;2.67;2.10;;;23.70;72.30;;;;;;6170055;23;20428;-69
2023/08/15 02:23:09;;;;;;;2.80;2.27;;;23.70;72.40;;;;;;6171636;23;20777;-68
2023/08/15 02:25:37;;;;;;;3.07;2.60;;;23.70;72.50;;;;;;6171352;23;20433;-68
2023/08/15 02:28:07;;;;;;;2.60;2.30;;;23.70;72.60;;;;;;6171298;23;20416;-68
2023/08/15 02:30:37;;;;;;;3.00;2.73;;;23.70;72.10;;;;;;6171233;23;20523;-68
2023/08/15 02:33:07;;;;;;;4.40;3.40;;;23.70;72.20;;;;;;6170566;23;20413;-70
2023/08/15 02:35:40;;;;;;;2.80;2.60;;;23.80;72.60;;;;;;6169717;23;20429;-68
2023/08/15 02:38:08;;;;;;;3.20;2.90;;;23.70;72.80;;;;;;6172120;23;20393;-68
2023/08/15 02:40:38;;;;;;;2.80;2.60;;;23.70;73.00;;;;;;6171126;23;20432;-68
2023/08/15 02:43:07;;;;;;;3.17;2.87;;;23.70;72.70;;;;;;6171123;23;20416;-67
2023/08/15 02:45:35;;;;;;;2.20;2.00;;;23.70;73.00;;;;;;6169880;23;20433;-68
2023/08/15 02:48:04;;;;;;;2.83;2.20;;;23.70;72.60;;;;;;6171841;23;20407;-68
2023/08/15 02:50:34;;;;;;;2.20;2.00;;;23.70;72.20;;;;;;6169974;23;20922;-68
2023/08/15 02:53:02;;;;;;;2.67;2.47;;;23.70;72.20;;;;;;6170728;23;20451;-68
2023/08/15 02:55:30;;;;;;;4.37;2.07;;;23.70;71.70;;;;;;6170076;23;20436;-69
2023/08/15 02:57:59;;;;;;;2.27;2.03;;;23.70;71.80;;;;;;6170982;23;20405;-68
2023/08/15 03:00:27;;;;;;;3.60;2.20;;;23.70;72.90;;;;;;6170358;23;20437;-68
2023/08/15 03:02:56;;;;;;;4.00;2.80;;;23.70;71.50;;;;;;6170749;23;20416;-68
2023/08/15 03:05:24;;;;;;;2.63;2.43;;;23.70;72.30;;;;;;6169524;23;20512;-68
2023/08/15 03:07:54;;;;;;;3.47;2.93;;;23.70;71.50;;;;;;6171795;23;20397;-66
2023/08/15 03:10:22;;;;;;;8.47;3.10;;;23.70;72.80;;;;;;6170792;23;20486;-67
2023/08/15 03:12:51;;;;;;;2.30;2.10;;;23.70;72.80;;;;;;6169860;23;20399;-68
2023/08/15 03:15:19;;;;;;;2.70;2.50;;;23.70;71.60;;;;;;6170360;23;20421;-69
2023/08/15 03:17:47;;;;;;;3.70;3.40;;;23.70;71.90;;;;;;6171455;23;20733;-67
2023/08/15 03:20:16;;;;;;;3.17;2.50;;;23.70;73.50;;;;;;6170607;22;20754;-67
2023/08/15 03:22:45;;;;;;;3.70;2.70;;;23.70;72.30;;;;;;6170874;23;20392;-68
2023/08/15 03:25:15;;;;;;;2.97;2.47;;;23.70;73.00;;;;;;6145312;23;21003;-70
2023/08/15 03:27:44;;;;;;;2.83;2.50;;;23.70;73.00;;;;;;6171694;23;20389;-70
2023/08/15 03:30:13;;;;;;;2.67;2.23;;;23.70;72.80;;;;;;6169913;23;20753;-69
2023/08/15 03:32:41;;;;;;;4.47;2.40;;;23.70;72.20;;;;;;6170861;23;20771;-70
2023/08/15 03:35:11;;;;;;;3.83;2.87;;;23.70;71.90;;;;;;6169383;23;20437;-68
2023/08/15 03:37:41;;;;;;;1.93;1.73;;;23.70;74.20;;;;;;6172212;23;20454;-69
2023/08/15 03:40:11;;;;;;;2.63;2.30;;;23.70;72.20;;;;;;6171223;23;20440;-70
2023/08/15 03:42:40;;;;;;;3.97;2.43;;;23.70;72.00;;;;;;6171085;23;20411;-68
2023/08/15 03:45:09;;;;;;;2.10;1.90;;;23.70;72.80;;;;;;6170549;23;20784;-69
2023/08/15 03:47:38;;;;;;;2.87;2.53;;;23.70;72.20;;;;;;6174399;23;20405;-68
2023/08/15 03:50:07;;;;;;;2.93;2.03;;;23.70;73.90;;;;;;6170415;23;20437;-68
2023/08/15 03:52:36;;;;;;;2.37;2.17;;;23.70;72.70;;;;;;6171089;23;20917;-68
2023/08/15 03:55:05;;;;;;;2.97;2.30;;;23.70;73.00;;;;;;6170837;23;20441;-69
2023/08/15 03:57:34;;;;;;;3.07;2.30;;;23.70;73.60;;;;;;6146556;23;20454;-69
2023/08/15 04:00:06;;;;;;;2.50;2.30;;;23.70;72.80;;;;;;6170028;23;20447;-68
2023/08/15 04:02:40;;;;;;;2.87;2.00;;;23.70;72.30;;;;;;6172478;23;20369;-69
2023/08/15 04:05:09;;;;;;;2.83;2.23;;;23.70;71.90;;;;;;6169712;23;20440;-68
2023/08/15 04:07:37;;;;;;;3.47;2.70;;;23.70;72.50;;;;;;6171659;23;20710;-69
2023/08/15 04:10:07;;;;;;;2.70;2.50;;;23.60;72.70;;;;;;6170190;23;20941;-68
2023/08/15 04:12:35;;;;;;;2.37;2.10;;;23.60;72.60;;;;;;6170889;23;20396;-68
2023/08/15 04:15:06;;;;;;;3.33;2.33;;;23.70;72.60;;;;;;6169685;23;20444;-68
2023/08/15 04:17:35;;;;;;;2.40;2.00;;;23.70;72.40;;;;;;6171483;23;20729;-69
2023/08/15 04:20:04;;;;;;;2.07;1.80;;;23.60;72.00;;;;;;6169206;23;20428;-69
2023/08/15 04:22:37;;;;;;;6.53;2.90;;;23.60;71.90;;;;;;6169904;23;20473;-68
2023/08/15 04:25:07;;;;;;;2.40;2.20;;;23.70;72.30;;;;;;6172095;22;20433;-68
2023/08/15 04:27:36;;;;;;;2.70;2.47;;;23.70;71.90;;;;;;6171306;23;20405;-68
2023/08/15 04:30:08;;;;;;;3.10;2.03;;;23.60;72.10;;;;;;6169955;23;21030;-68
2023/08/15 04:32:36;;;;;;;1.83;1.63;;;23.60;71.90;;;;;;6169761;23;20994;-68
2023/08/15 04:35:06;;;;;;;2.23;2.00;;;23.60;72.20;;;;;;6169096;23;20441;-69
2023/08/15 04:37:35;;;;;;;3.60;2.27;;;23.60;72.40;;;;;;6170700;23;20981;-68
2023/08/15 04:40:05;;;;;;;4.70;2.23;;;23.60;72.60;;;;;;6170604;23;20930;-67
2023/08/15 04:42:33;;;;;;;2.70;2.40;;;23.60;72.90;;;;;;6169153;23;20371;-69
2023/08/15 04:45:02;;;;;;;3.23;2.10;;;23.60;72.10;;;;;;6169853;23;20447;-69
2023/08/15 04:47:33;;;;;;;2.03;1.83;;;23.60;71.90;;;;;;6170875;23;20405;-68
2023/08/15 04:50:02;;;;;;;2.23;1.90;;;23.60;71.70;;;;;;6169614;23;20990;-68
2023/08/15 04:52:30;;;;;;;2.37;2.17;;;23.60;71.50;;;;;;6169716;23;20392;-68
2023/08/15 04:55:00;;;;;;;2.50;2.30;;;23.60;72.30;;;;;;6169770;23;20445;-69
2023/08/15 04:57:29;;;;;;;3.97;2.47;;;23.60;72.90;;;;;;6170394;23;20412;-68
2023/08/15 04:59:57;;;;;;;3.30;2.23;;;23.60;72.50;;;;;;6170120;23;20437;-68
2023/08/15 05:02:27;;;;;;;2.73;2.23;;;23.60;72.80;;;;;;6170802;23;20750;-68
2023/08/15 05:04:57;;;;;;;2.33;2.00;;;23.60;72.30;;;;;;6169965;23;20429;-67
2023/08/15 05:07:26;;;;;;;2.70;2.23;;;23.60;72.60;;;;;;6170929;23;20918;-69
2023/08/15 05:09:55;;;;;;;2.90;2.03;;;23.60;72.10;;;;;;6170049;23;20494;-68
2023/08/15 05:12:23;;;;;;;2.00;1.80;;;23.60;71.60;;;;;;6171332;23;20400;-69
2023/08/15 05:14:51;;;;;;;2.80;1.90;;;23.60;71.50;;;;;;6170546;23;20958;-69
2023/08/15 05:17:20;;;;;;;2.60;2.40;;;23.60;71.30;;;;;;6171091;23;20417;-68
2023/08/15 05:19:49;;;;;;;2.37;2.17;;;23.60;71.20;;;;;;6169551;23;20436;-68
2023/08/15 05:22:19;;;;;;;3.00;1.70;;;23.60;71.20;;;;;;6169899;23;20397;-67
2023/08/15 05:24:48;;;;;;;2.60;2.30;;;23.60;71.50;;;;;;6172486;23;20388;-68
2023/08/15 05:27:17;;;;;;;2.00;1.90;;;23.60;71.20;;;;;;6170273;23;20425;-69
2023/08/15 05:29:45;;;;;;;3.70;2.00;;;23.60;71.00;;;;;;6169733;23;20444;-67
2023/08/15 05:32:14;;;;;;;2.63;2.27;;;23.60;71.00;;;;;;6170472;23;20400;-67
2023/08/15 05:34:42;;;;;;;2.57;2.27;;;23.60;71.00;;;;;;6170809;23;20463;-72
2023/08/15 05:37:10;;;;;;;2.63;2.00;;;23.60;71.10;;;;;;6172523;23;20415;-73
2023/08/15 05:39:40;;;;;;;2.83;2.30;;;23.60;71.30;;;;;;6171235;23;20400;-72
2023/08/15 05:42:08;;;;;;;2.67;2.10;;;23.60;71.20;;;;;;6146023;22;20397;-72
2023/08/15 05:44:37;;;;;;;2.20;2.00;;;23.60;71.10;;;;;;6169376;23;20437;-73
2023/08/15 05:47:06;;;;;;;2.27;2.07;;;23.60;71.20;;;;;;6170848;23;20408;-72
2023/08/15 05:49:34;;;;;;;2.47;2.27;;;23.60;71.10;;;;;;6171349;23;20393;-72
2023/08/15 05:52:02;;;;;;;2.00;1.80;;;23.60;71.20;;;;;;6172582;23;20485;-73
2023/08/15 05:54:31;;;;;;;2.00;1.80;;;23.60;71.20;;;;;;6171552;23;20407;-72
2023/08/15 05:57:01;;;;;;;2.17;1.97;;;23.60;71.00;;;;;;6172079;23;20470;-72
2023/08/15 05:59:29;;;;;;;2.33;2.13;;;23.60;71.00;;;;;;6171393;23;20741;-72
2023/08/15 06:01:59;;;;;;;2.43;1.90;;;23.60;71.00;;;;;;6172352;23;20389;-72
2023/08/15 06:04:27;;;;;;;2.00;1.87;;;23.60;70.90;;;;;;6171569;23;20405;-74
2023/08/15 06:06:55;;;;;;;3.40;2.30;;;23.60;70.90;;;;;;6172602;23;20504;-73
2023/08/15 06:09:24;;;;;;;1.93;1.63;;;23.60;70.90;;;;;;6173255;23;20973;-72
2023/08/15 06:11:52;;;;;;;2.20;2.00;;;23.60;70.70;;;;;;6172182;23;20396;-73
2023/08/15 06:14:22;;;;;;;2.80;1.97;;;23.60;70.60;;;;;;6171379;23;20381;-73
2023/08/15 06:16:50;;;;;;;2.53;2.33;;;23.60;70.70;;;;;;6174344;23;20477;-73
2023/08/15 06:19:19;;;;;;;2.10;1.90;;;23.60;71.00;;;;;;6171335;23;20393;-72
2023/08/15 06:21:48;;;;;;;2.73;2.37;;;23.60;70.70;;;;;;6172103;23;20381;-73
2023/08/15 06:24:16;;;;;;;2.90;2.40;;;23.60;71.00;;;;;;6171087;23;20437;-72
2023/08/15 06:26:44;;;;;;;2.23;2.03;;;23.60;71.20;;;;;;6171678;23;20413;-72
2023/08/15 06:29:13;;;;;;;2.07;1.87;;;23.60;71.00;;;;;;6172626;23;20393;-73
2023/08/15 06:31:42;;;;;;;2.30;2.10;;;23.60;70.90;;;;;;6172460;23;20377;-73
2023/08/15 06:34:11;;;;;;;2.33;2.13;;;23.60;70.70;;;;;;6171076;23;20412;-73
2023/08/15 06:36:39;;;;;;;2.20;1.80;;;23.60;71.80;;;;;;6172036;23;20432;-72
2023/08/15 06:39:08;;;;;;;2.60;1.50;;;23.60;70.50;;;;;;6171828;23;20790;-73
2023/08/15 06:41:36;;;;;;;2.20;2.00;;;23.50;70.20;;;;;;6171622;23;20389;-72
2023/08/15 06:44:05;;;;;;;2.00;1.80;;;23.60;70.30;;;;;;6170312;23;20914;-72
2023/08/15 06:46:35;;;;;;;2.20;2.00;;;23.50;70.20;;;;;;6171513;23;20423;-72
2023/08/15 06:49:05;;;;;;;2.40;2.00;;;23.60;70.30;;;;;;6170714;23;20817;-73
2023/08/15 06:51:33;;;;;;;2.30;2.10;;;23.60;70.30;;;;;;6171865;23;20412;-73
2023/08/15 06:54:01;;;;;;;2.33;2.13;;;23.60;70.20;;;;;;6172255;23;20446;-73
2023/08/15 06:56:30;;;;;;;1.93;1.73;;;23.50;70.20;;;;;;6171888;23;20498;-72
2023/08/15 06:58:59;;;;;;;1.97;1.67;;;23.50;70.20;;;;;;6170032;23;20689;-72
2023/08/15 07:01:27;;;;;;;3.00;2.10;;;23.60;70.40;;;;;;6171810;23;20389;-71
2023/08/15 07:03:55;;;;;;;2.00;1.70;;;23.50;70.10;;;;;;6171524;23;20385;-72
2023/08/15 07:06:25;;;;;;;2.57;2.10;;;23.50;70.10;;;;;;6171818;23;20423;-72
2023/08/15 07:08:54;;;;;;;2.17;1.97;;;23.50;70.00;;;;;;6171825;23;20408;-71
2023/08/15 07:11:22;;;;;;;2.10;1.90;;;23.50;70.00;;;;;;6172274;23;20480;-72
2023/08/15 07:13:51;;;;;;;2.77;1.83;;;23.50;69.90;;;;;;6170186;23;20393;-72
2023/08/15 07:16:19;;;;;;;2.20;1.93;;;23.50;69.90;;;;;;6171330;23;20459;-73
2023/08/15 07:18:47;;;;;;;2.00;1.70;;;23.60;69.90;;;;;;6171890;23;20393;-71
2023/08/15 07:21:15;;;;;;;1.93;1.83;;;23.50;69.70;;;;;;6171048;23;20404;-71
2023/08/15 07:23:50;;;;;;;2.00;1.67;;;23.60;69.80;;;;;;6172871;23;20369;-73
2023/08/15 07:26:18;;;;;;;1.80;1.70;;;23.50;69.60;;;;;;6171735;23;20415;-72
2023/08/15 07:28:46;;;;;;;2.23;2.03;;;23.50;69.60;;;;;;6171322;23;20874;-72
2023/08/15 07:31:15;;;;;;;2.17;1.60;;;23.50;69.70;;;;;;6171610;23;20478;-72
2023/08/15 07:33:43;;;;;;;2.80;2.17;;;23.50;69.50;;;;;;6172472;23;20389;-71
2023/08/15 07:36:12;;;;;;;2.80;2.03;;;23.50;69.90;;;;;;6171158;23;20446;-71
2023/08/15 07:38:40;;;;;;;1.83;1.53;;;23.50;69.50;;;;;;6172449;23;20366;-72
2023/08/15 07:41:10;;;;;;;3.40;2.57;;;23.50;69.50;;;;;;6171181;23;20775;-72
2023/08/15 07:43:38;;;;;;;5.20;2.70;;;23.50;69.90;;;;;;6170141;23;20797;-72
2023/08/15 07:46:06;;;;;;;2.93;1.90;;;23.50;70.70;;;;;;6170535;23;20981;-71
2023/08/15 07:48:35;;;;;;;2.03;1.83;;;23.50;70.40;;;;;;6172070;23;20397;-72
2023/08/15 07:51:04;;;;;;;5.00;1.70;;;23.50;70.20;;;;;;6170264;23;20451;-73
2023/08/15 07:53:32;;;;;;;2.80;2.40;;;23.50;69.80;;;;;;6171385;23;20400;-72
2023/08/15 07:56:00;;;;;;;2.90;2.13;;;23.50;70.00;;;;;;6170820;23;20777;-72
2023/08/15 07:58:32;;;;;;;2.30;2.10;;;23.50;70.00;;;;;;6170747;23;20377;-72
2023/08/15 08:01:01;;;;;;;2.07;1.87;;;23.50;69.80;;;;;;6170798;23;20432;-71
2023/08/15 08:03:29;;;;;;;3.30;1.60;;;23.50;69.80;;;;;;6170979;23;20391;-73
2023/08/15 08:05:58;;;;;;;2.40;1.80;;;23.50;70.90;;;;;;6169642;23;20779;-72
2023/08/15 08:08:26;;;;;;;3.13;2.10;;;23.50;69.40;;;;;;6171249;23;20426;-73
2023/08/15 08:10:55;;;;;;;2.30;2.10;;;23.50;69.50;;;;;;6170292;23;20437;-72
2023/08/15 08:13:23;;;;;;;1.83;1.73;;;23.50;69.40;;;;;;6169893;23;20392;-71
2023/08/15 08:15:54;;;;;;;2.80;1.93;;;23.50;69.60;;;;;;6170391;23;20448;-73
2023/08/15 08:18:23;;;;;;;2.53;2.20;;;23.50;69.40;;;;;;6171126;23;20368;-72
2023/08/15 08:20:51;;;;;;;1.97;1.57;;;23.50;69.30;;;;;;6144480;23;20446;-71
2023/08/15 08:23:20;;;;;;;2.07;1.60;;;23.50;69.30;;;;;;6170653;23;20393;-71
2023/08/15 08:25:49;;;;;;;1.80;1.70;;;23.50;69.30;;;;;;6171894;23;21228;-72
2023/08/15 08:28:17;;;;;;;2.50;2.10;;;23.50;69.20;;;;;;6171311;23;20400;-72
2023/08/15 08:30:47;;;;;;;2.23;1.90;;;23.50;69.10;;;;;;6171418;23;20550;-71
2023/08/15 08:33:16;;;;;;;2.83;2.50;;;23.50;69.00;;;;;;6172339;23;20389;-72
2023/08/15 08:35:45;;;;;;;2.30;2.10;;;23.50;69.40;;;;;;6170536;23;20955;-73
2023/08/15 08:38:13;;;;;;;2.40;1.90;;;23.50;69.20;;;;;;6171777;23;20886;-73
2023/08/15 08:40:42;;;;;;;2.53;2.10;;;23.50;69.30;;;;;;6171119;23;20424;-71
2023/08/15 08:43:12;;;;;;;2.57;2.13;;;23.50;69.70;;;;;;6171518;23;20401;-72
2023/08/15 08:45:41;;;;;;;2.50;2.30;;;23.50;69.70;;;;;;6172568;22;20441;-72
2023/08/15 08:48:11;;;;;;;2.17;1.97;;;23.50;69.90;;;;;;6171686;23;20724;-71
2023/08/15 08:50:41;;;;;;;2.13;1.93;;;23.50;70.10;;;;;;6168761;23;20459;-72
2023/08/15 08:53:09;;;;;;;3.33;2.40;;;23.50;70.70;;;;;;6172377;23;20387;-71
2023/08/15 08:55:39;;;;;;;3.50;3.20;;;23.50;70.50;;;;;;6170358;23;20447;-72
2023/08/15 08:58:11;;;;;;;2.93;2.63;;;23.50;70.80;;;;;;6170997;23;20770;-72
2023/08/15 09:00:41;;;;;;;2.37;2.17;;;23.50;71.00;;;;;;6170449;23;20437;-72
2023/08/15 09:03:10;;;;;;;2.73;2.53;;;23.50;70.30;;;;;;6171147;23;20379;-72
2023/08/15 09:05:42;;;;;;;2.97;2.10;;;23.50;70.30;;;;;;6168931;23;20436;-73
2023/08/15 09:08:10;;;;;;;4.23;3.17;;;23.50;70.00;;;;;;6171500;23;20395;-72
2023/08/15 09:10:38;;;;;;;2.17;1.93;;;23.50;71.80;;;;;;6170226;23;20440;-72
2023/08/15 09:13:07;;;;;;;2.10;1.77;;;23.50;70.20;;;;;;6169948;23;20690;-72
2023/08/15 09:15:35;;;;;;;2.80;2.10;;;23.50;71.20;;;;;;6169509;23;20432;-73
2023/08/15 09:18:06;;;;;;;2.70;2.10;;;23.50;69.80;;;;;;6171440;23;20462;-72
2023/08/15 09:20:46;;;;;;;2.73;2.13;;;23.50;69.50;;;;;;6169436;23;20953;-72
2023/08/15 09:23:15;;;;;;;2.20;1.63;;;23.50;69.50;;;;;;6171090;23;20380;-72
2023/08/15 09:25:44;;;;;;;2.83;1.93;;;23.50;69.50;;;;;;6171734;23;20443;-72
2023/08/15 09:28:13;;;;;;;2.50;1.93;;;23.50;69.60;;;;;;6171695;23;20408;-72
2023/08/15 09:30:51;;;;;;;1.80;1.47;;;23.50;69.50;;;;;;6171312;23;20432;-71
2023/08/15 09:33:19;;;;;;;2.30;1.90;;;23.50;69.40;;;;;;6171755;23;20445;-72
2023/08/15 09:35:49;;;;;;;1.60;1.40;;;23.50;69.40;;;;;;6171130;23;20447;-72
2023/08/15 09:38:26;;;;;;;1.93;1.70;;;23.50;69.30;;;;;;6172467;23;20417;-72
2023/08/15 09:40:56;;;;;;;2.00;1.80;;;23.40;69.30;;;;;;6171700;23;20492;-73
2023/08/15 09:43:24;;;;;;;3.60;2.23;;;23.50;69.60;;;;;;6172572;23;20393;-71
2023/08/15 09:45:54;;;;;;;1.93;1.73;;;23.50;69.90;;;;;;6171758;23;20440;-72
2023/08/15 09:48:23;;;;;;;2.13;1.60;;;23.40;71.00;;;;;;6171864;23;20385;-72
2023/08/15 09:50:55;;;;;;;2.33;2.13;;;23.50;70.00;;;;;;6170683;23;20441;-73
2023/08/15 09:53:24;;;;;;;6.50;2.20;;;23.50;70.20;;;;;;6171247;23;20384;-73
2023/08/15 09:55:53;;;;;;;2.80;1.43;;;23.50;70.00;;;;;;6172937;22;20440;-73
2023/08/15 09:58:22;;;;;;;3.07;1.73;;;23.40;69.60;;;;;;6171257;23;21073;-72
2023/08/15 10:00:52;;;;;;;2.37;1.97;;;23.40;69.60;;;;;;6171714;23;20963;-72
2023/08/15 10:03:25;;;;;;;2.77;2.20;;;23.40;69.60;;;;;;6171935;23;20391;-72
2023/08/15 10:05:56;;;;;;;2.33;1.80;;;23.50;69.90;;;;;;6146911;23;21011;-73
2023/08/15 10:08:25;;;;;;;2.93;2.30;;;23.50;70.20;;;;;;6173629;23;20382;-72
2023/08/15 10:10:54;;;;;;;2.30;1.70;;;23.50;70.00;;;;;;6172366;23;20662;-71
2023/08/15 10:13:26;;;;;;;2.30;1.80;;;23.50;70.00;;;;;;6172324;23;20383;-72
2023/08/15 10:15:56;;;;;;;2.33;1.87;;;23.40;69.70;;;;;;6170727;23;20779;-72
2023/08/15 10:18:25;;;;;;;1.97;1.73;;;23.50;69.60;;;;;;6171726;23;20433;-73
2023/08/15 10:20:56;;;;;;;2.47;1.83;;;23.50;69.50;;;;;;6170118;23;20440;-72
2023/08/15 10:23:28;;;;;;;1.50;1.40;;;23.50;69.50;;;;;;6171624;23;20415;-72
2023/08/15 10:25:56;;;;;;;1.70;1.40;;;23.50;69.60;;;;;;6171948;23;20779;-72
2023/08/15 10:28:28;;;;;;;1.80;1.60;;;23.50;69.50;;;;;;6171202;23;20879;-73
2023/08/15 10:30:57;;;;;;;2.30;1.80;;;23.50;69.40;;;;;;6171335;23;20906;-72
2023/08/15 10:33:27;;;;;;;1.70;1.60;;;23.50;69.50;;;;;;6172662;23;20388;-72
2023/08/15 10:36:08;;;;;;;2.30;2.00;;;23.50;69.50;;;;;;6170544;23;20441;-72
2023/08/15 10:38:41;;;;;;;1.83;1.70;;;23.50;69.80;;;;;;6172582;23;20837;-72
2023/08/15 10:41:14;;;;;;;2.60;1.70;;;23.50;69.60;;;;;;6171441;23;20429;-72
2023/08/15 10:43:48;;;;;;;2.40;1.93;;;23.50;69.40;;;;;;6171224;23;20438;-73
2023/08/15 10:46:18;;;;;;;2.83;1.93;;;23.50;69.50;;;;;;6170923;23;20462;-73
2023/08/15 10:48:49;;;;;;;2.60;2.20;;;23.50;69.60;;;;;;6171313;23;20388;-72
2023/08/15 10:51:24;;;;;;;2.07;1.70;;;23.50;69.80;;;;;;6170872;23;20448;-72
2023/08/15 10:53:53;;;;;;;2.10;1.90;;;23.50;69.40;;;;;;6171719;23;20727;-72
2023/08/15 10:56:24;;;;;;;3.10;1.70;;;23.50;69.60;;;;;;6172557;23;20817;-72
2023/08/15 10:58:52;;;;;;;2.13;1.87;;;23.50;69.40;;;;;;6172085;23;20417;-72
2023/08/15 11:01:23;;;;;;;2.80;1.97;;;23.50;69.50;;;;;;6172249;23;20404;-72
2023/08/15 11:03:53;;;;;;;2.50;2.03;;;23.50;69.50;;;;;;6171647;23;20448;-72
2023/08/15 11:06:23;;;;;;;2.63;2.10;;;23.50;69.80;;;;;;6171672;23;20421;-71
2023/08/15 11:08:53;;;;;;;2.17;1.80;;;23.50;69.60;;;;;;6171865;23;20389;-73
2023/08/15 11:11:21;;;;;;;2.30;1.83;;;23.50;69.70;;;;;;6171434;23;20439;-73
2023/08/15 11:13:51;;;;;;;2.30;1.90;;;23.50;69.70;;;;;;6171259;23;20384;-72
2023/08/15 11:16:21;;;;;;;1.87;1.77;;;23.50;69.80;;;;;;6171012;23;20413;-72
2023/08/15 11:18:50;;;;;;;2.37;2.17;;;23.50;69.40;;;;;;6171663;23;20422;-72
2023/08/15 11:21:20;;;;;;;2.30;1.93;;;23.50;69.90;;;;;;6170003;23;20428;-73
2023/08/15 11:23:54;;;;;;;1.60;1.43;;;23.50;69.60;;;;;;6171221;23;20935;-71
2023/08/15 11:26:25;;;;;;;2.43;1.80;;;23.50;69.70;;;;;;6171976;23;20499;-72
2023/08/15 11:28:54;;;;;;;1.73;1.63;;;23.50;69.80;;;;;;6170541;23;20426;-73
2023/08/15 11:31:23;;;;;;;2.30;2.10;;;23.50;71.30;;;;;;6171678;23;20480;-73
2023/08/15 11:33:52;;;;;;;1.97;1.77;;;23.50;70.00;;;;;;6171478;23;20723;-72
2023/08/15 11:36:22;;;;;;;2.10;1.87;;;23.50;70.00;;;;;;6170949;23;20742;-72
2023/08/15 11:38:52;;;;;;;2.17;1.97;;;23.50;69.90;;;;;;6171343;23;20738;-72
2023/08/15 11:41:20;;;;;;;2.30;2.10;;;23.50;69.90;;;;;;6172096;23;20718;-72
2023/08/15 11:43:49;;;;;;;2.80;2.07;;;23.50;70.20;;;;;;6171093;23;20389;-72
2023/08/15 11:46:17;;;;;;;2.27;2.07;;;23.50;70.00;;;;;;6170883;23;20417;-72
2023/08/15 11:48:46;;;;;;;2.50;2.30;;;23.50;70.00;;;;;;6171771;23;20472;-71
2023/08/15 11:51:20;;;;;;;2.40;2.03;;;23.50;69.90;;;;;;6170102;23;20413;-72
2023/08/15 11:53:54;;;;;;;2.27;1.30;;;23.50;69.90;;;;;;6171103;23;20381;-72
2023/08/15 11:56:23;;;;;;;2.13;1.73;;;23.50;69.80;;;;;;6171507;23;20729;-71
2023/08/15 11:58:51;;;;;;;2.43;2.00;;;23.50;69.70;;;;;;6170786;23;20423;-72
2023/08/15 12:01:22;;;;;;;2.33;2.00;;;23.50;69.80;;;;;;6171925;23;20399;-72
2023/08/15 12:03:53;;;;;;;3.93;2.20;;;23.50;69.80;;;;;;6172022;23;20397;-72
2023/08/15 12:06:22;;;;;;;3.07;2.33;;;23.50;69.70;;;;;;6172839;23;20420;-73
2023/08/15 12:08:50;;;;;;;2.60;2.40;;;23.50;71.10;;;;;;6174115;23;20400;-72
2023/08/15 12:11:23;;;;;;;2.67;1.83;;;23.50;70.50;;;;;;6171074;23;20413;-72
2023/08/15 12:13:51;;;;;;;2.50;2.27;;;23.50;70.80;;;;;;6172671;23;20862;-73
2023/08/15 12:16:20;;;;;;;2.67;2.10;;;23.50;70.90;;;;;;6173493;23;20420;-72
2023/08/15 12:18:49;;;;;;;2.80;2.57;;;23.50;70.80;;;;;;6172014;23;20417;-72
2023/08/15 12:21:17;;;;;;;3.23;2.70;;;23.50;70.70;;;;;;6172103;23;20440;-72
2023/08/15 12:23:46;;;;;;;2.97;2.50;;;23.50;70.80;;;;;;6173290;23;20448;-72
2023/08/15 12:26:14;;;;;;;2.53;2.33;;;23.50;71.20;;;;;;6172064;23;20940;-73
2023/08/15 12:28:44;;;;;;;3.07;2.50;;;23.50;70.90;;;;;;6171708;23;20401;-73
2023/08/15 12:31:13;;;;;;;2.50;2.30;;;23.50;70.80;;;;;;6171402;23;20400;-72
2023/08/15 12:33:41;;;;;;;2.90;2.40;;;23.50;70.70;;;;;;6172660;23;20406;-73
2023/08/15 12:36:15;;;;;;;2.47;2.10;;;23.50;70.70;;;;;;6169774;23;20768;-72
2023/08/15 12:38:44;;;;;;;2.30;2.10;;;23.50;70.70;;;;;;6171424;23;20424;-71
2023/08/15 12:41:13;;;;;;;2.83;2.07;;;23.50;70.60;;;;;;6172090;22;20810;-72
2023/08/15 12:43:44;;;;;;;2.50;2.07;;;23.50;70.60;;;;;;6170724;23;20377;-72
2023/08/15 12:46:13;;;;;;;2.83;2.10;;;23.50;70.50;;;;;;6170861;23;20433;-72
2023/08/15 12:48:41;;;;;;;2.80;2.50;;;23.50;70.50;;;;;;6171655;23;20420;-73
2023/08/15 12:51:10;;;;;;;2.73;2.40;;;23.50;70.60;;;;;;6170012;23;20927;-73
2023/08/15 12:53:39;;;;;;;2.97;2.20;;;23.50;70.50;;;;;;6171234;23;20397;-72
2023/08/15 12:56:07;;;;;;;2.20;2.00;;;23.50;70.50;;;;;;6171897;22;20469;-71
2023/08/15 12:58:35;;;;;;;2.93;2.07;;;23.50;70.40;;;;;;6170613;23;20444;-72